createdAt,value
2023-08-05T00:00:15.559Z,9.03
2023-08-05T00:03:21.873Z,7.73
2023-08-05T00:06:28.428Z,7.40
2023-08-05T00:09:34.921Z,7.53
2023-08-05T00:12:41.493Z,8.77
2023-08-05T00:15:50.921Z,7.03
2023-08-05T00:18:57.297Z,6.97
2023-08-05T00:22:03.888Z,7.97
2023-08-05T00:25:11.951Z,6.87
2023-08-05T00:28:18.361Z,8.73
2023-08-05T00:31:27.315Z,8.83
2023-08-05T00:34:35.036Z,7.53
2023-08-05T00:37:41.670Z,7.20
2023-08-05T00:40:47.811Z,7.77
2023-08-05T00:43:54.452Z,6.67
2023-08-05T00:47:02.428Z,7.37
2023-08-05T00:50:09.394Z,9.67
2023-08-05T00:53:16.175Z,7.23
2023-08-05T00:56:22.586Z,7.07
2023-08-05T00:59:28.976Z,8.63
2023-08-05T01:02:36.655Z,7.37
2023-08-05T01:05:44.149Z,6.30
2023-08-05T01:08:51.327Z,7.67
2023-08-05T01:11:57.937Z,7.00
2023-08-05T01:15:04.526Z,7.00
2023-08-05T01:18:13.964Z,6.40
2023-08-05T01:21:26.023Z,7.47
2023-08-05T01:24:41.684Z,7.17
2023-08-05T01:27:49.852Z,8.73
2023-08-05T01:30:59.084Z,7.83
2023-08-05T01:34:07.296Z,8.17
2023-08-05T01:37:13.905Z,9.37
2023-08-05T01:40:20.422Z,7.17
2023-08-05T01:43:28.372Z,8.57
2023-08-05T01:46:34.861Z,6.57
2023-08-05T01:49:41.255Z,9.37
2023-08-05T01:52:47.727Z,7.77
2023-08-05T01:55:54.234Z,8.70
2023-08-05T01:59:02.316Z,6.50
2023-08-05T02:02:09.279Z,8.50
2023-08-05T02:05:15.652Z,6.60
2023-08-05T02:08:22.296Z,8.47
2023-08-05T02:11:29.165Z,8.13
2023-08-05T02:14:37.050Z,8.03
2023-08-05T02:17:44.104Z,8.03
2023-08-05T02:20:50.577Z,7.03
2023-08-05T02:23:57.677Z,7.50
2023-08-05T02:27:03.938Z,8.67
2023-08-05T02:30:12.595Z,6.73
2023-08-05T02:33:18.923Z,10.37
2023-08-05T02:36:25.520Z,10.07
2023-08-05T02:39:32.304Z,12.03
2023-08-05T02:42:38.754Z,10.57
2023-08-05T02:45:46.402Z,7.93
2023-08-05T02:48:52.618Z,7.93
2023-08-05T02:51:58.769Z,8.17
2023-08-05T02:55:05.983Z,7.67
2023-08-05T02:58:12.601Z,8.10
2023-08-05T03:01:20.663Z,7.23
2023-08-05T03:04:27.068Z,9.00
2023-08-05T03:07:33.396Z,7.23
2023-08-05T03:10:41.490Z,7.80
2023-08-05T03:13:47.999Z,7.83
2023-08-05T03:16:55.747Z,7.53
2023-08-05T03:20:05.195Z,7.60
2023-08-05T03:23:12.172Z,7.10
2023-08-05T03:26:18.559Z,7.67
2023-08-05T03:29:25.109Z,6.37
2023-08-05T03:32:33.246Z,9.57
2023-08-05T03:35:44.379Z,8.33
2023-08-05T03:38:50.880Z,10.30
2023-08-05T03:41:57.345Z,9.93
2023-08-05T03:45:05.620Z,11.03
2023-08-05T03:48:13.167Z,10.37
2023-08-05T03:51:19.512Z,10.27
2023-08-05T03:54:26.179Z,10.67
2023-08-05T03:57:32.706Z,8.37
2023-08-05T04:00:42.176Z,8.03
2023-08-05T04:03:50.322Z,8.57
2023-08-05T04:06:56.894Z,9.17
2023-08-05T04:10:07.274Z,10.67
2023-08-05T04:13:13.460Z,10.87
2023-08-05T04:16:19.832Z,7.90
2023-08-05T04:19:27.671Z,7.97
2023-08-05T04:22:36.252Z,10.73
2023-08-05T04:25:47.045Z,7.87
2023-08-05T04:28:53.362Z,10.13
2023-08-05T04:31:59.518Z,9.33
2023-08-05T04:35:08.637Z,10.73
2023-08-05T04:38:14.685Z,10.17
2023-08-05T04:41:21.246Z,9.17
2023-08-05T04:44:28.104Z,9.77
2023-08-05T04:47:34.466Z,8.43
2023-08-05T04:50:42.447Z,8.97
2023-08-05T04:53:48.725Z,10.43
2023-08-05T04:56:55.416Z,7.87
2023-08-05T05:00:01.997Z,9.40
2023-08-05T05:03:09.240Z,9.57
2023-08-05T05:06:17.393Z,9.07
2023-08-05T05:09:23.781Z,8.87
2023-08-05T05:12:30.573Z,8.93
2023-08-05T05:15:37.505Z,10.07
2023-08-05T05:18:43.826Z,11.13
2023-08-05T05:21:53.329Z,10.10
2023-08-05T05:25:01.464Z,11.53
2023-08-05T05:28:08.135Z,10.93
2023-08-05T05:31:14.631Z,9.67
2023-08-05T05:34:21.107Z,10.00
2023-08-05T05:37:29.443Z,9.43
2023-08-05T05:40:40.709Z,9.17
2023-08-05T05:43:47.438Z,8.80
2023-08-05T05:46:54.298Z,9.00
2023-08-05T05:50:01.200Z,8.50
2023-08-05T05:53:14.745Z,8.80
2023-08-05T05:56:20.860Z,9.40
2023-08-05T05:59:27.760Z,10.03
2023-08-05T06:02:35.410Z,10.37
2023-08-05T06:05:42.450Z,9.47
2023-08-05T06:08:50.338Z,9.97
2023-08-05T06:11:56.876Z,10.90
2023-08-05T06:15:03.490Z,10.13
2023-08-05T06:18:10.400Z,8.43
2023-08-05T06:21:17.288Z,7.93
2023-08-05T06:24:25.226Z,7.90
2023-08-05T06:27:31.497Z,8.32
2023-08-05T06:30:38.048Z,7.70
2023-08-05T06:33:44.610Z,8.50
2023-08-05T06:36:51.441Z,8.93
2023-08-05T06:39:59.362Z,7.60
2023-08-05T06:43:05.875Z,8.35
2023-08-05T06:46:12.692Z,6.95
2023-08-05T06:49:19.407Z,7.40
2023-08-05T06:52:26.305Z,7.10
2023-08-05T06:55:34.100Z,8.10
2023-08-05T06:58:40.669Z,7.68
2023-08-05T07:01:46.994Z,7.22
2023-08-05T07:04:53.718Z,6.10
2023-08-05T07:08:00.133Z,7.80
2023-08-05T07:11:07.973Z,7.10
2023-08-05T07:14:14.473Z,9.15
2023-08-05T07:17:20.842Z,8.57
2023-08-05T07:20:27.285Z,6.60
2023-08-05T07:23:34.287Z,6.88
2023-08-05T07:26:42.262Z,6.55
2023-08-05T07:29:48.520Z,6.80
2023-08-05T07:32:55.147Z,6.75
2023-08-05T07:36:10.851Z,6.88
2023-08-05T07:39:17.099Z,6.47
2023-08-05T07:42:27.040Z,6.40
2023-08-05T07:45:35.239Z,5.68
2023-08-05T07:48:42.062Z,6.45
2023-08-05T07:51:51.918Z,5.85
2023-08-05T07:54:59.626Z,6.40
2023-08-05T07:58:07.507Z,8.30
2023-08-05T08:01:14.996Z,5.75
2023-08-05T08:04:21.778Z,6.43
2023-08-05T08:07:28.272Z,6.22
2023-08-05T08:10:35.043Z,5.20
2023-08-05T08:13:42.948Z,6.05
2023-08-05T08:16:49.158Z,5.70
2023-08-05T08:19:55.736Z,4.68
2023-08-05T08:23:02.131Z,6.82
2023-08-05T08:26:08.584Z,5.57
2023-08-05T08:29:16.180Z,5.07
2023-08-05T08:32:22.547Z,5.05
2023-08-05T08:35:28.793Z,4.65
2023-08-05T08:38:35.500Z,4.65
2023-08-05T08:41:43.888Z,5.22
2023-08-05T08:44:52.021Z,5.50
2023-08-05T08:47:58.860Z,5.22
2023-08-05T08:51:06.058Z,5.57
2023-08-05T08:54:15.872Z,5.72
2023-08-05T08:57:22.056Z,4.72
2023-08-05T09:00:31.960Z,5.15
2023-08-05T09:03:43.464Z,4.95
2023-08-05T09:06:50.498Z,4.18
2023-08-05T09:09:58.784Z,4.53
2023-08-05T09:13:07.710Z,4.25
2023-08-05T09:16:16.641Z,4.78
2023-08-05T09:19:27.192Z,4.65
2023-08-05T09:22:33.838Z,5.63
2023-08-05T09:25:41.943Z,4.03
2023-08-05T09:28:48.237Z,4.95
2023-08-05T09:32:00.810Z,5.25
2023-08-05T09:35:11.640Z,4.53
2023-08-05T09:38:18.102Z,4.20
2023-08-05T09:41:31.797Z,4.32
2023-08-05T09:44:38.906Z,4.03
2023-08-05T09:47:49.455Z,4.00
2023-08-05T09:50:56.105Z,4.85
2023-08-05T09:54:10.086Z,3.97
2023-08-05T09:57:16.769Z,4.32
2023-08-05T10:00:24.669Z,4.90
2023-08-05T10:03:34.677Z,4.78
2023-08-05T10:06:42.411Z,4.57
2023-08-05T10:09:49.868Z,4.55
2023-08-05T10:13:02.330Z,4.78
2023-08-05T10:16:10.915Z,4.30
2023-08-05T10:19:29.532Z,3.63
2023-08-05T10:22:36.340Z,4.85
2023-08-05T10:25:44.334Z,4.88
2023-08-05T10:28:50.569Z,4.47
2023-08-05T10:32:16.188Z,4.22
2023-08-05T10:35:40.612Z,4.60
2023-08-05T10:38:47.212Z,4.05
2023-08-05T10:41:53.946Z,4.70
2023-08-05T10:45:01.464Z,3.90
2023-08-05T10:48:10.210Z,4.75
2023-08-05T10:51:19.969Z,4.88
2023-08-05T10:54:26.634Z,5.18
2023-08-05T10:57:49.361Z,4.40
2023-08-05T11:01:00.382Z,4.47
2023-08-05T11:04:29.926Z,3.75
2023-08-05T11:07:39.689Z,4.30
2023-08-05T11:10:47.008Z,3.53
2023-08-05T11:13:54.437Z,4.18
2023-08-05T11:17:03.996Z,5.68
2023-08-05T11:20:11.562Z,6.20
2023-08-05T11:23:19.605Z,3.83
2023-08-05T11:26:26.320Z,4.38
2023-08-05T11:29:34.319Z,4.45
2023-08-05T11:32:51.478Z,3.70
2023-08-05T11:35:58.809Z,3.67
2023-08-05T11:39:06.836Z,4.43
2023-08-05T11:42:13.315Z,3.88
2023-08-05T11:45:19.883Z,3.83
2023-08-05T11:48:27.622Z,4.47
2023-08-05T11:51:46.178Z,4.28
2023-08-05T11:55:18.145Z,3.65
2023-08-05T11:58:28.221Z,3.30
2023-08-05T12:01:38.137Z,4.10
2023-08-05T12:04:45.917Z,3.40
2023-08-05T12:07:52.675Z,6.28
2023-08-05T12:11:00.317Z,3.70
2023-08-05T12:14:06.897Z,3.08
2023-08-05T12:17:13.557Z,4.15
2023-08-05T12:20:21.987Z,3.75
2023-08-05T12:23:28.124Z,4.15
2023-08-05T12:26:36.946Z,3.67
2023-08-05T12:29:43.638Z,3.75
2023-08-05T12:32:50.534Z,4.57
2023-08-05T12:35:57.676Z,4.35
2023-08-05T12:42:12.620Z,3.75
2023-08-05T12:45:18.933Z,4.30
2023-08-05T12:48:25.898Z,3.60
2023-08-05T12:51:32.245Z,3.53
2023-08-05T12:54:38.886Z,3.88
2023-08-05T12:57:46.744Z,3.90
2023-08-05T13:00:53.020Z,6.03
2023-08-05T13:03:59.976Z,3.63
2023-08-05T13:07:06.661Z,4.47
2023-08-05T13:10:13.226Z,3.53
2023-08-05T13:13:20.783Z,4.32
2023-08-05T13:16:27.409Z,4.40
2023-08-05T13:19:33.640Z,3.92
2023-08-05T13:22:40.052Z,4.70
2023-08-05T13:25:46.369Z,3.30
2023-08-05T13:28:54.186Z,6.32
2023-08-05T13:32:00.656Z,3.50
2023-08-05T13:35:07.794Z,3.50
2023-08-05T13:38:13.903Z,3.50
2023-08-05T13:41:20.649Z,3.42
2023-08-05T13:44:28.618Z,3.30
2023-08-05T13:47:35.432Z,3.40
2023-08-05T13:50:41.805Z,4.03
2023-08-05T13:53:48.766Z,3.03
2023-08-05T13:56:55.532Z,3.67
2023-08-05T14:00:03.742Z,5.10
2023-08-05T14:03:09.946Z,4.13
2023-08-05T14:06:16.259Z,3.90
2023-08-05T14:09:23.134Z,3.85
2023-08-05T14:12:29.593Z,4.60
2023-08-05T14:15:37.662Z,4.18
2023-08-05T14:18:44.983Z,3.53
2023-08-05T14:21:51.816Z,3.38
2023-08-05T14:24:58.912Z,3.47
2023-08-05T14:28:05.905Z,4.10
2023-08-05T14:31:13.419Z,4.30
2023-08-05T14:34:19.771Z,3.28
2023-08-05T14:37:26.229Z,3.60
2023-08-05T14:40:34.181Z,3.70
2023-08-05T14:43:40.490Z,3.15
2023-08-05T14:46:48.234Z,3.35
2023-08-05T14:49:54.912Z,3.08
2023-08-05T14:53:01.112Z,3.75
2023-08-05T14:56:08.086Z,3.95
2023-08-05T14:59:14.424Z,2.72
2023-08-05T15:02:22.305Z,3.10
2023-08-05T15:05:28.782Z,5.93
2023-08-05T15:08:35.733Z,3.20
2023-08-05T15:11:42.221Z,3.33
2023-08-05T15:14:48.735Z,3.30
2023-08-05T15:17:57.491Z,3.25
2023-08-05T15:21:04.277Z,3.22
2023-08-05T15:24:10.813Z,3.28
2023-08-05T15:27:17.545Z,3.35
2023-08-05T15:30:23.963Z,2.95
2023-08-05T15:33:32.192Z,3.00
2023-08-05T15:36:38.860Z,3.55
2023-08-05T15:39:45.436Z,4.05
2023-08-05T15:42:51.757Z,3.80
2023-08-05T15:45:58.606Z,3.47
2023-08-05T15:49:06.297Z,2.80
2023-08-05T15:52:12.607Z,3.33
2023-08-05T15:55:19.610Z,3.78
2023-08-05T15:58:26.264Z,3.10
2023-08-05T16:01:35.198Z,7.75
2023-08-05T16:04:45.919Z,7.05
2023-08-05T16:07:52.760Z,3.75
2023-08-05T16:11:03.210Z,3.00
2023-08-05T16:14:09.903Z,3.25
2023-08-05T16:17:16.522Z,3.00
2023-08-05T16:20:24.555Z,3.80
2023-08-05T16:23:31.310Z,2.83
2023-08-05T16:26:37.955Z,3.05
2023-08-05T16:29:44.468Z,2.72
2023-08-05T16:32:51.251Z,2.90
2023-08-05T16:35:59.462Z,3.05
2023-08-05T16:39:05.818Z,2.95
2023-08-05T16:42:12.533Z,2.78
2023-08-05T16:45:18.946Z,2.80
2023-08-05T16:48:25.487Z,2.80
2023-08-05T16:51:33.039Z,3.28
2023-08-05T16:54:41.955Z,3.40
2023-08-05T16:57:48.486Z,3.15
2023-08-05T17:00:56.061Z,3.92
2023-08-05T17:04:02.239Z,3.88
2023-08-05T17:07:09.947Z,7.13
2023-08-05T17:10:16.281Z,10.95
2023-08-05T17:13:22.625Z,4.82
2023-08-05T17:16:29.129Z,5.60
2023-08-05T17:19:35.568Z,5.35
2023-08-05T17:22:43.421Z,5.72
2023-08-05T17:29:14.562Z,5.75
2023-08-05T17:32:21.097Z,8.30
2023-08-05T17:35:27.567Z,4.85
2023-08-05T17:38:35.524Z,4.75
2023-08-05T17:41:42.010Z,5.28
2023-08-05T17:44:48.358Z,4.15
2023-08-05T17:47:54.762Z,7.78
2023-08-05T17:51:02.148Z,13.23
2023-08-05T17:54:10.232Z,6.47
2023-08-05T17:57:16.702Z,5.28
2023-08-05T18:00:23.453Z,16.33
2023-08-05T18:03:30.249Z,11.50
2023-08-05T18:06:36.800Z,10.80
2023-08-05T18:09:44.905Z,8.18
2023-08-05T18:12:51.197Z,4.75
2023-08-05T18:15:57.790Z,5.60
2023-08-05T18:19:04.274Z,5.60
2023-08-05T18:22:10.851Z,3.88
2023-08-05T18:25:18.824Z,3.97
2023-08-05T18:28:24.908Z,5.72
2023-08-05T18:31:31.379Z,4.95
2023-08-05T18:34:39.627Z,4.03
2023-08-05T18:37:45.878Z,3.72
2023-08-05T18:40:53.747Z,3.58
2023-08-05T18:44:00.014Z,3.28
2023-08-05T18:47:07.208Z,4.43
2023-08-05T18:50:13.533Z,4.72
2023-08-05T18:53:20.171Z,3.75
2023-08-05T18:56:28.226Z,4.63
2023-08-05T18:59:34.620Z,3.95
2023-08-05T19:02:41.385Z,4.00
2023-08-05T19:05:57.385Z,3.88
2023-08-05T19:09:04.934Z,4.32
2023-08-05T19:12:12.745Z,3.85
2023-08-05T19:15:18.881Z,3.53
2023-08-05T19:18:25.656Z,4.60
2023-08-05T19:21:31.975Z,3.80
2023-08-05T19:24:38.373Z,3.28
2023-08-05T19:27:54.437Z,5.30
2023-08-05T19:31:06.439Z,5.13
2023-08-05T19:34:12.693Z,5.70
2023-08-05T19:37:19.381Z,4.07
2023-08-05T19:40:25.554Z,7.70
2023-08-05T19:43:33.807Z,6.75
2023-08-05T19:46:40.457Z,5.72
2023-08-05T19:49:47.113Z,7.28
2023-08-05T19:52:53.720Z,3.53
2023-08-05T19:56:01.490Z,4.45
2023-08-05T19:59:09.216Z,3.35
2023-08-05T20:02:16.618Z,3.88
2023-08-05T20:05:22.964Z,3.28
2023-08-05T20:08:29.593Z,4.07
2023-08-05T20:11:36.138Z,4.75
2023-08-05T20:14:43.938Z,4.70
2023-08-05T20:17:50.523Z,4.30
2023-08-05T20:20:57.004Z,3.45
2023-08-05T20:24:03.188Z,3.67
2023-08-05T20:27:09.566Z,4.93
2023-08-05T20:30:18.460Z,5.10
2023-08-05T20:33:24.692Z,3.97
2023-08-05T20:36:30.915Z,4.38
2023-08-05T20:39:37.328Z,5.28
2023-08-05T20:42:43.544Z,4.80
2023-08-05T20:45:53.604Z,3.88
2023-08-05T20:49:00.204Z,3.90
2023-08-05T20:52:06.953Z,6.90
2023-08-05T20:55:13.236Z,5.70
2023-08-05T20:58:19.890Z,3.55
2023-08-05T21:01:27.949Z,3.13
2023-08-05T21:04:34.654Z,4.63
2023-08-05T21:07:41.766Z,4.47
2023-08-05T21:10:48.655Z,3.80
2023-08-05T21:13:55.308Z,4.33
2023-08-05T21:17:03.445Z,5.20
2023-08-05T21:20:11.076Z,3.30
2023-08-05T21:23:17.576Z,3.15
2023-08-05T21:26:24.206Z,3.25
2023-08-05T21:29:31.567Z,3.60
2023-08-05T21:32:40.132Z,6.25
2023-08-05T21:35:46.955Z,3.92
2023-08-05T21:38:53.636Z,3.67
2023-08-05T21:42:00.564Z,3.67
2023-08-05T21:45:07.797Z,4.72
2023-08-05T21:48:15.865Z,3.75
2023-08-05T21:51:22.701Z,3.45
2023-08-05T21:54:30.140Z,7.18
2023-08-05T21:57:36.516Z,4.37
2023-08-05T22:00:43.099Z,4.00
2023-08-05T22:03:50.978Z,5.50
2023-08-05T22:06:57.678Z,4.10
2023-08-05T22:10:04.108Z,4.13
2023-08-05T22:13:10.910Z,4.33
2023-08-05T22:16:17.382Z,3.67
2023-08-05T22:19:24.866Z,4.33
2023-08-05T22:22:31.249Z,5.10
2023-08-05T22:25:37.690Z,4.03
2023-08-05T22:28:43.684Z,7.13
2023-08-05T22:31:50.540Z,5.83
2023-08-05T22:34:58.803Z,4.03
2023-08-05T22:38:05.352Z,4.10
2023-08-05T22:41:11.900Z,3.77
2023-08-05T22:44:18.324Z,3.47
2023-08-05T22:47:25.000Z,3.70
2023-08-05T22:50:33.057Z,3.37
2023-08-05T22:53:40.189Z,4.40
2023-08-05T22:56:47.110Z,4.70
2023-08-05T22:59:54.040Z,4.77
2023-08-05T23:03:00.661Z,7.53
2023-08-05T23:06:13.593Z,6.17
2023-08-05T23:09:20.500Z,4.77
2023-08-05T23:12:27.289Z,5.37
2023-08-05T23:15:35.294Z,6.50
2023-08-05T23:18:41.905Z,6.40
2023-08-05T23:21:49.476Z,5.57
2023-08-05T23:24:55.691Z,5.70
2023-08-05T23:28:02.293Z,6.73
2023-08-05T23:31:09.053Z,6.20
2023-08-05T23:34:15.758Z,7.53
2023-08-05T23:37:23.701Z,7.17
2023-08-05T23:40:30.063Z,8.77
2023-08-05T23:43:36.579Z,7.43
2023-08-05T23:46:44.027Z,7.23
2023-08-05T23:49:50.913Z,5.87
2023-08-05T23:52:58.815Z,6.37
2023-08-05T23:56:05.851Z,5.63
2023-08-05T23:59:12.261Z,7.67
